createdAt,value
2018-01-25T00:00:43.184Z,11.90
2018-01-25T00:01:43.210Z,8.00
2018-01-25T00:02:43.224Z,6.70
2018-01-25T00:03:43.148Z,6.70
2018-01-25T00:04:43.121Z,7.30
2018-01-25T00:05:43.108Z,7.40
2018-01-25T00:06:43.166Z,7.30
2018-01-25T00:07:43.110Z,7.70
2018-01-25T00:08:43.061Z,7.30
2018-01-25T00:09:43.046Z,6.10
2018-01-25T00:10:43.045Z,3.20
2018-01-25T00:11:43.014Z,7.70
2018-01-25T00:12:43.026Z,7.50
2018-01-25T00:13:42.981Z,8.50
2018-01-25T00:14:43.006Z,8.20
2018-01-25T00:15:42.954Z,12.30
2018-01-25T00:16:42.934Z,8.00
2018-01-25T00:17:42.945Z,6.20
2018-01-25T00:18:42.918Z,6.20
2018-01-25T00:19:42.892Z,8.90
2018-01-25T00:20:42.876Z,6.80
2018-01-25T00:21:42.862Z,7.00
2018-01-25T00:22:42.881Z,5.90
2018-01-25T00:23:42.874Z,8.50
2018-01-25T00:24:42.816Z,10.00
2018-01-25T00:25:42.794Z,8.00
2018-01-25T00:26:42.857Z,7.20
2018-01-25T00:27:42.818Z,7.90
2018-01-25T00:28:42.761Z,9.50
2018-01-25T00:29:42.745Z,10.00
2018-01-25T00:30:42.951Z,7.60
2018-01-25T00:31:42.705Z,6.50
2018-01-25T00:32:42.712Z,4.90
2018-01-25T00:33:42.698Z,7.30
2018-01-25T00:34:42.659Z,4.00
2018-01-25T00:35:42.644Z,7.00
2018-01-25T00:36:42.632Z,6.50
2018-01-25T00:37:42.624Z,4.90
2018-01-25T00:38:42.652Z,8.20
2018-01-25T00:39:42.624Z,6.00
2018-01-25T00:40:42.569Z,7.60
2018-01-25T00:41:42.627Z,8.00
2018-01-25T00:42:42.555Z,5.30
2018-01-25T00:43:42.559Z,4.80
2018-01-25T00:44:42.536Z,4.70
2018-01-25T00:45:42.495Z,6.80
2018-01-25T00:46:42.498Z,5.00
2018-01-25T00:47:42.559Z,6.80
2018-01-25T00:48:42.490Z,5.90
2018-01-25T00:49:42.451Z,6.00
2018-01-25T00:50:42.419Z,7.20
2018-01-25T00:51:42.436Z,6.40
2018-01-25T00:52:43.037Z,6.70
2018-01-25T00:53:42.402Z,4.00
2018-01-25T00:54:42.419Z,4.90
2018-01-25T00:55:42.379Z,5.00
2018-01-25T00:56:42.361Z,4.40
2018-01-25T00:57:42.303Z,5.50
2018-01-25T00:58:42.296Z,3.40
2018-01-25T00:59:42.296Z,4.40
2018-01-25T01:00:42.378Z,2.80
2018-01-25T01:01:42.240Z,6.30
2018-01-25T01:02:42.226Z,4.80
2018-01-25T01:03:42.208Z,4.20
2018-01-25T01:04:42.217Z,4.60
2018-01-25T01:05:42.209Z,2.60
2018-01-25T01:06:42.170Z,4.70
2018-01-25T01:07:42.157Z,3.50
2018-01-25T01:08:42.133Z,3.20
2018-01-25T01:09:42.143Z,4.70
2018-01-25T01:10:42.169Z,4.60
2018-01-25T01:11:42.091Z,2.40
2018-01-25T01:12:42.077Z,4.90
2018-01-25T01:13:42.066Z,4.00
2018-01-25T01:14:42.054Z,5.60
2018-01-25T01:15:42.036Z,5.20
2018-01-25T01:16:42.036Z,3.80
2018-01-25T01:17:42.000Z,3.70
2018-01-25T01:18:41.985Z,5.50
2018-01-25T01:19:41.971Z,3.90
2018-01-25T01:20:41.953Z,5.00
2018-01-25T01:21:41.953Z,3.10
2018-01-25T01:22:41.926Z,3.10
2018-01-25T01:23:41.976Z,3.40
2018-01-25T01:24:41.888Z,2.90
2018-01-25T01:25:41.877Z,4.50
2018-01-25T01:26:42.018Z,3.90
2018-01-25T01:27:41.849Z,3.60
2018-01-25T01:28:41.933Z,4.40
2018-01-25T01:29:41.812Z,4.80
2018-01-25T01:30:41.800Z,4.30
2018-01-25T01:31:41.818Z,2.00
2018-01-25T01:32:41.779Z,7.60
2018-01-25T01:33:41.939Z,4.00
2018-01-25T01:34:41.731Z,3.10
2018-01-25T01:35:41.738Z,2.60
2018-01-25T01:36:41.831Z,1.80
2018-01-25T01:37:41.691Z,4.20
2018-01-25T01:38:41.772Z,2.60
2018-01-25T01:39:41.664Z,3.20
2018-01-25T01:40:41.779Z,1.80
2018-01-25T01:41:41.697Z,3.10
2018-01-25T01:42:41.617Z,4.20
2018-01-25T01:43:41.604Z,2.90
2018-01-25T01:44:41.592Z,2.50
2018-01-25T01:45:41.636Z,1.70
2018-01-25T01:46:41.602Z,1.60
2018-01-25T01:47:41.560Z,3.00
2018-01-25T01:48:41.634Z,1.80
2018-01-25T01:49:41.504Z,6.20
2018-01-25T01:50:41.494Z,5.10
2018-01-25T01:51:41.553Z,3.60
2018-01-25T01:52:41.480Z,2.80
2018-01-25T01:53:41.452Z,2.90
2018-01-25T01:54:41.443Z,4.00
2018-01-25T01:55:41.450Z,2.00
2018-01-25T01:56:41.521Z,3.20
2018-01-25T01:57:41.415Z,1.90
2018-01-25T01:58:41.518Z,2.30
2018-01-25T01:59:41.353Z,2.50
2018-01-25T02:00:41.429Z,2.50
2018-01-25T02:01:41.319Z,3.60
2018-01-25T02:02:41.341Z,3.50
2018-01-25T02:03:41.294Z,3.00
2018-01-25T02:04:41.368Z,4.20
2018-01-25T02:05:41.322Z,2.70
2018-01-25T02:06:41.249Z,2.10
2018-01-25T02:07:41.365Z,2.80
2018-01-25T02:08:41.308Z,2.60
2018-01-25T02:09:41.321Z,3.60
2018-01-25T02:10:41.179Z,1.40
2018-01-25T02:11:41.185Z,4.80
2018-01-25T02:12:41.165Z,2.10
2018-01-25T02:13:41.130Z,2.00
2018-01-25T02:14:41.120Z,1.80
2018-01-25T02:15:41.202Z,1.20
2018-01-25T02:16:41.075Z,1.00
2018-01-25T02:17:41.090Z,1.50
2018-01-25T02:18:41.059Z,1.30
2018-01-25T02:19:41.124Z,1.30
2018-01-25T02:20:41.025Z,2.40
2018-01-25T02:21:41.013Z,1.20
2018-01-25T02:22:40.991Z,3.40
2018-01-25T02:23:40.994Z,1.70
2018-01-25T02:24:40.958Z,2.60
2018-01-25T02:25:40.944Z,2.70
2018-01-25T02:26:40.965Z,2.40
2018-01-25T02:27:41.071Z,2.40
2018-01-25T02:28:40.931Z,2.70
2018-01-25T02:29:40.894Z,1.50
2018-01-25T02:30:40.908Z,3.90
2018-01-25T02:31:40.846Z,1.70
2018-01-25T02:32:40.837Z,1.20
2018-01-25T02:33:40.854Z,1.40
2018-01-25T02:34:40.812Z,1.50
2018-01-25T02:35:40.792Z,3.30
2018-01-25T02:36:40.778Z,1.70
2018-01-25T02:37:40.790Z,2.30
2018-01-25T02:38:40.763Z,1.70
2018-01-25T02:39:40.745Z,1.20
2018-01-25T02:40:40.710Z,1.60
2018-01-25T02:41:40.703Z,1.90
2018-01-25T02:42:40.708Z,3.30
2018-01-25T02:43:40.665Z,1.30
2018-01-25T02:44:40.696Z,3.80
2018-01-25T02:45:40.638Z,2.80
2018-01-25T02:46:40.629Z,4.90
2018-01-25T02:47:40.605Z,0.90
2018-01-25T02:48:40.591Z,1.40
2018-01-25T02:49:40.592Z,1.20
2018-01-25T02:50:40.559Z,3.20
2018-01-25T02:51:40.544Z,1.10
2018-01-25T02:52:40.525Z,1.00
2018-01-25T02:53:40.511Z,1.10
2018-01-25T02:54:40.521Z,1.00
2018-01-25T02:55:40.477Z,0.90
2018-01-25T02:56:40.471Z,1.20
2018-01-25T02:57:40.481Z,1.10
2018-01-25T02:58:40.433Z,1.50
2018-01-25T02:59:40.443Z,1.60
2018-01-25T03:00:40.402Z,1.70
2018-01-25T03:01:40.494Z,3.10
2018-01-25T03:02:40.370Z,2.60
2018-01-25T03:03:40.452Z,1.10
2018-01-25T03:04:40.376Z,2.70
2018-01-25T03:05:40.341Z,1.50
2018-01-25T03:06:40.302Z,1.60
2018-01-25T03:07:40.292Z,1.70
2018-01-25T03:08:41.056Z,1.60
2018-01-25T03:09:40.285Z,2.00
2018-01-25T03:10:40.269Z,3.00
2018-01-25T03:11:40.225Z,2.00
2018-01-25T03:12:40.256Z,1.50
2018-01-25T03:13:40.210Z,0.70
2018-01-25T03:14:40.198Z,0.90
2018-01-25T03:15:40.196Z,0.80
2018-01-25T03:16:40.171Z,1.50
2018-01-25T03:17:40.146Z,3.00
2018-01-25T03:18:40.153Z,1.50
2018-01-25T03:19:40.144Z,2.10
2018-01-25T03:20:40.142Z,2.10
2018-01-25T03:21:40.091Z,1.50
2018-01-25T03:22:40.059Z,0.90
2018-01-25T03:23:40.063Z,1.10
2018-01-25T03:24:40.057Z,0.50
2018-01-25T03:25:40.057Z,2.20
2018-01-25T03:26:40.009Z,1.00
2018-01-25T03:27:40.004Z,0.90
2018-01-25T03:28:40.024Z,2.50
2018-01-25T03:29:39.971Z,1.70
2018-01-25T03:30:39.982Z,1.00
2018-01-25T03:31:39.958Z,1.80
2018-01-25T03:32:39.937Z,0.60
2018-01-25T03:33:39.909Z,1.90
2018-01-25T03:34:39.894Z,2.00
2018-01-25T03:35:39.995Z,0.70
2018-01-25T03:36:39.857Z,1.00
2018-01-25T03:37:39.852Z,1.50
2018-01-25T03:38:39.835Z,1.50
2018-01-25T03:39:39.821Z,0.70
2018-01-25T03:40:39.822Z,1.90
2018-01-25T03:41:39.783Z,1.00
2018-01-25T03:42:39.776Z,0.80
2018-01-25T03:43:39.775Z,1.00
2018-01-25T03:44:39.741Z,0.90
2018-01-25T03:45:44.722Z,1.90
2018-01-25T03:46:39.747Z,3.00
2018-01-25T03:47:39.702Z,1.10
2018-01-25T03:48:39.757Z,1.20
2018-01-25T03:49:39.657Z,2.00
2018-01-25T03:50:39.746Z,0.80
2018-01-25T03:51:39.635Z,1.80
2018-01-25T03:52:39.629Z,1.00
2018-01-25T03:53:39.658Z,0.80
2018-01-25T03:54:39.626Z,1.00
2018-01-25T03:55:39.557Z,1.40
2018-01-25T03:56:39.551Z,0.80
2018-01-25T03:57:39.556Z,1.50
2018-01-25T03:58:39.637Z,2.10
2018-01-25T03:59:39.510Z,3.00
2018-01-25T04:00:39.494Z,2.00
2018-01-25T04:01:40.208Z,1.60
2018-01-25T04:02:39.484Z,2.10
2018-01-25T04:03:39.439Z,2.30
2018-01-25T04:04:39.427Z,1.60
2018-01-25T04:05:39.411Z,3.70
2018-01-25T04:06:39.389Z,0.80
2018-01-25T04:07:39.498Z,1.80
2018-01-25T04:08:39.363Z,1.80
2018-01-25T04:09:39.342Z,1.30
2018-01-25T04:10:39.311Z,1.30
2018-01-25T04:11:39.311Z,0.90
2018-01-25T04:12:39.325Z,0.80
2018-01-25T04:13:39.313Z,1.10
2018-01-25T04:14:39.256Z,2.20
2018-01-25T04:15:39.253Z,1.10
2018-01-25T04:16:39.345Z,1.20
2018-01-25T04:17:39.243Z,2.20
2018-01-25T04:18:39.305Z,1.50
2018-01-25T04:19:39.194Z,1.30
2018-01-25T04:20:39.172Z,0.70
2018-01-25T04:21:39.161Z,0.70
2018-01-25T04:22:39.180Z,0.50
2018-01-25T04:23:39.130Z,0.50
2018-01-25T04:24:40.207Z,0.50
2018-01-25T04:25:39.171Z,2.00
2018-01-25T04:26:39.083Z,1.20
2018-01-25T04:27:39.083Z,1.00
2018-01-25T04:28:41.664Z,2.30
2018-01-25T04:29:39.041Z,1.10
2018-01-25T04:30:39.021Z,0.80
2018-01-25T04:31:39.080Z,0.60
2018-01-25T04:32:39.088Z,0.80
2018-01-25T04:33:38.988Z,1.30
2018-01-25T04:34:38.965Z,2.00
2018-01-25T04:35:38.949Z,1.00
2018-01-25T04:36:39.031Z,0.60
2018-01-25T04:37:38.915Z,0.70
2018-01-25T04:38:38.990Z,0.50
2018-01-25T04:39:38.863Z,0.60
2018-01-25T04:40:38.866Z,0.90
2018-01-25T04:41:38.841Z,1.00
2018-01-25T04:42:38.847Z,1.60
2018-01-25T04:43:38.852Z,1.50
2018-01-25T04:44:38.863Z,2.20
2018-01-25T04:45:38.789Z,0.50
2018-01-25T04:46:38.756Z,1.30
2018-01-25T04:47:38.853Z,1.00
2018-01-25T04:48:38.762Z,0.90
2018-01-25T04:49:38.847Z,0.60
2018-01-25T04:50:38.696Z,1.80
2018-01-25T04:51:38.781Z,2.30
2018-01-25T04:52:38.670Z,1.00
2018-01-25T04:53:38.756Z,0.80
2018-01-25T04:54:38.665Z,0.40
2018-01-25T04:55:38.635Z,1.80
2018-01-25T04:56:38.600Z,2.40
2018-01-25T04:57:38.767Z,1.20
2018-01-25T04:58:38.578Z,3.10
2018-01-25T04:59:38.612Z,1.80
2018-01-25T05:00:38.658Z,3.00
2018-01-25T05:01:38.531Z,1.60
2018-01-25T05:02:38.526Z,1.60
2018-01-25T05:03:38.500Z,1.40
2018-01-25T05:04:38.518Z,2.80
2018-01-25T05:05:38.481Z,0.70
2018-01-25T05:06:38.466Z,1.80
2018-01-25T05:07:38.435Z,1.30
2018-01-25T05:08:38.423Z,3.50
2018-01-25T05:09:38.443Z,1.00
2018-01-25T05:10:38.375Z,0.90
2018-01-25T05:11:38.473Z,1.50
2018-01-25T05:12:38.362Z,0.50
2018-01-25T05:13:38.350Z,0.60
2018-01-25T05:14:38.372Z,1.60
2018-01-25T05:15:38.399Z,1.60
2018-01-25T05:16:38.307Z,1.90
2018-01-25T05:17:38.296Z,1.20
2018-01-25T05:18:38.403Z,1.20
2018-01-25T05:19:38.367Z,1.60
2018-01-25T05:20:38.254Z,0.70
2018-01-25T05:21:38.219Z,2.40
2018-01-25T05:22:38.285Z,2.70
2018-01-25T05:23:38.190Z,1.90
2018-01-25T05:24:38.173Z,1.20
2018-01-25T05:25:38.265Z,0.70
2018-01-25T05:26:38.124Z,2.50
2018-01-25T05:27:38.126Z,1.60
2018-01-25T05:28:38.119Z,1.30
2018-01-25T05:29:38.095Z,1.00
2018-01-25T05:30:38.123Z,0.50
2018-01-25T05:31:38.073Z,2.40
2018-01-25T05:32:38.048Z,1.70
2018-01-25T05:33:38.033Z,1.10
2018-01-25T05:34:38.026Z,1.00
2018-01-25T05:35:38.008Z,1.00
2018-01-25T05:36:38.012Z,1.00
2018-01-25T05:37:38.081Z,1.00
2018-01-25T05:38:37.937Z,3.20
2018-01-25T05:39:37.946Z,0.70
2018-01-25T05:40:37.935Z,1.20
2018-01-25T05:41:37.931Z,0.80
2018-01-25T05:42:37.957Z,4.00
2018-01-25T05:43:37.929Z,1.60
2018-01-25T05:44:37.869Z,0.60
2018-01-25T05:45:37.847Z,1.10
2018-01-25T05:46:37.867Z,1.60
2018-01-25T05:47:37.837Z,2.10
2018-01-25T05:48:37.801Z,2.40
2018-01-25T05:49:37.791Z,1.50
2018-01-25T05:50:37.764Z,1.20
2018-01-25T05:51:37.823Z,2.10
2018-01-25T05:52:37.745Z,2.60
2018-01-25T05:53:37.768Z,2.10
2018-01-25T05:54:37.702Z,2.20
2018-01-25T05:55:37.690Z,2.40
2018-01-25T05:56:37.717Z,1.30
2018-01-25T05:57:37.684Z,2.00
2018-01-25T05:58:37.633Z,1.80
2018-01-25T05:59:37.604Z,3.90
2018-01-25T06:00:38.114Z,0.60
2018-01-25T06:01:37.594Z,1.30
2018-01-25T06:02:37.605Z,5.30
2018-01-25T06:03:37.567Z,2.80
2018-01-25T06:04:37.601Z,1.70
2018-01-25T06:05:37.542Z,2.30
2018-01-25T06:06:37.530Z,4.30
2018-01-25T06:07:37.521Z,4.10
2018-01-25T06:08:37.530Z,5.40
2018-01-25T06:09:37.473Z,3.50
2018-01-25T06:10:37.550Z,7.40
2018-01-25T06:11:37.484Z,3.80
2018-01-25T06:12:37.452Z,5.80
2018-01-25T06:13:37.429Z,4.10
2018-01-25T06:14:37.391Z,2.90
2018-01-25T06:15:37.389Z,3.50
2018-01-25T06:16:37.363Z,3.50
2018-01-25T06:17:37.357Z,2.80
2018-01-25T06:18:37.464Z,2.40
2018-01-25T06:19:37.348Z,0.90
2018-01-25T06:20:37.302Z,2.50
2018-01-25T06:21:37.308Z,3.60
2018-01-25T06:22:37.271Z,1.50
2018-01-25T06:23:37.311Z,6.50
2018-01-25T06:24:37.247Z,2.80
2018-01-25T06:25:37.217Z,2.80
2018-01-25T06:26:37.306Z,2.10
2018-01-25T06:27:37.166Z,4.20
2018-01-25T06:28:37.297Z,4.90
2018-01-25T06:29:38.121Z,6.00
2018-01-25T06:30:37.148Z,10.30
2018-01-25T06:31:37.138Z,3.00
2018-01-25T06:32:37.120Z,4.20
2018-01-25T06:33:37.176Z,6.20
2018-01-25T06:34:37.107Z,5.50
2018-01-25T06:35:37.151Z,3.90
2018-01-25T06:36:37.053Z,5.50
2018-01-25T06:37:37.031Z,3.90
2018-01-25T06:38:37.013Z,2.40
2018-01-25T06:39:37.072Z,2.50
2018-01-25T06:40:36.992Z,2.90
2018-01-25T06:41:36.973Z,2.80
2018-01-25T06:42:36.958Z,2.60
2018-01-25T06:43:36.955Z,3.90
2018-01-25T06:44:37.052Z,2.70
2018-01-25T06:45:36.912Z,4.80
2018-01-25T06:46:36.897Z,2.30
2018-01-25T06:47:36.872Z,3.90
2018-01-25T06:48:36.870Z,3.80
2018-01-25T06:49:36.875Z,5.20
2018-01-25T06:50:36.920Z,3.30
2018-01-25T06:51:36.820Z,2.40
2018-01-25T06:52:36.802Z,2.00
2018-01-25T06:53:36.865Z,3.10
2018-01-25T06:54:36.791Z,1.60
2018-01-25T06:55:36.894Z,3.60
2018-01-25T06:56:36.733Z,2.80
2018-01-25T06:57:36.809Z,2.10
2018-01-25T06:58:36.730Z,3.50
2018-01-25T06:59:36.692Z,3.20
2018-01-25T07:00:36.730Z,2.00
2018-01-25T07:01:36.713Z,2.00
2018-01-25T07:02:36.697Z,2.30
2018-01-25T07:03:36.635Z,4.00
2018-01-25T07:04:36.614Z,2.30
2018-01-25T07:05:36.616Z,2.60
2018-01-25T07:06:36.596Z,1.00
2018-01-25T07:07:36.560Z,3.30
2018-01-25T07:08:36.586Z,3.00
2018-01-25T07:09:36.572Z,2.40
2018-01-25T07:10:37.150Z,2.70
2018-01-25T07:11:36.746Z,2.40
2018-01-25T07:12:36.495Z,2.70
2018-01-25T07:13:36.468Z,2.20
2018-01-25T07:14:36.455Z,2.50
2018-01-25T07:15:36.448Z,2.30
2018-01-25T07:16:36.453Z,2.60
2018-01-25T07:17:37.137Z,2.20
2018-01-25T07:18:36.440Z,2.20
2018-01-25T07:19:36.381Z,2.60
2018-01-25T07:20:36.460Z,2.00
2018-01-25T07:21:36.485Z,1.90
2018-01-25T07:22:36.321Z,2.30
2018-01-25T07:23:36.313Z,2.50
2018-01-25T07:24:36.310Z,0.90
2018-01-25T07:25:36.305Z,1.90
2018-01-25T07:26:36.280Z,3.30
2018-01-25T07:27:36.277Z,2.10
2018-01-25T07:28:36.235Z,2.20
2018-01-25T07:29:37.141Z,1.60
2018-01-25T07:30:36.203Z,2.00
2018-01-25T07:31:36.183Z,2.00
2018-01-25T07:32:36.251Z,3.30
2018-01-25T07:33:36.165Z,3.00
2018-01-25T07:34:36.185Z,1.50
2018-01-25T07:35:36.101Z,1.30
2018-01-25T07:36:36.107Z,0.90
2018-01-25T07:37:36.112Z,2.60
2018-01-25T07:38:36.082Z,1.30
2018-01-25T07:39:36.135Z,2.50
2018-01-25T07:40:36.080Z,1.90
2018-01-25T07:41:36.084Z,1.50
2018-01-25T07:42:36.208Z,1.90
2018-01-25T07:43:36.000Z,3.10
2018-01-25T07:44:36.042Z,2.70
2018-01-25T07:45:36.672Z,2.60
2018-01-25T07:46:36.063Z,2.40
2018-01-25T07:47:36.036Z,4.40
2018-01-25T07:48:36.039Z,2.50
2018-01-25T07:49:35.905Z,3.10
2018-01-25T07:50:35.894Z,3.50
2018-01-25T07:51:35.887Z,5.20
2018-01-25T07:52:35.961Z,3.50
2018-01-25T07:53:35.856Z,5.30
2018-01-25T07:54:35.804Z,7.20
2018-01-25T07:55:35.814Z,13.90
2018-01-25T07:56:35.826Z,15.10
2018-01-25T07:57:35.808Z,19.10
2018-01-25T07:58:35.776Z,15.70
2018-01-25T07:59:35.744Z,16.00
2018-01-25T08:00:35.824Z,12.10
2018-01-25T08:01:35.697Z,8.30
2018-01-25T08:02:35.700Z,12.40
2018-01-25T08:03:35.680Z,16.40
2018-01-25T08:04:35.646Z,12.20
2018-01-25T08:05:35.632Z,11.00
2018-01-25T08:06:35.627Z,10.20
2018-01-25T08:07:35.595Z,12.70
2018-01-25T08:08:35.609Z,16.50
2018-01-25T08:09:35.632Z,12.70
2018-01-25T08:10:35.551Z,10.70
2018-01-25T08:11:35.555Z,8.80
2018-01-25T08:12:35.540Z,10.40
2018-01-25T08:13:35.501Z,9.90
2018-01-25T08:14:35.529Z,8.80
2018-01-25T08:15:35.476Z,9.30
2018-01-25T08:16:35.463Z,7.90
2018-01-25T08:17:35.445Z,6.50
2018-01-25T08:18:35.434Z,9.30
2018-01-25T08:19:35.441Z,9.20
2018-01-25T08:20:35.406Z,8.60
2018-01-25T08:21:36.187Z,9.70
2018-01-25T08:22:35.365Z,5.70
2018-01-25T08:23:35.357Z,7.00
2018-01-25T08:24:35.371Z,7.10
2018-01-25T08:25:35.314Z,7.80
2018-01-25T08:26:35.305Z,9.90
2018-01-25T08:27:35.323Z,6.00
2018-01-25T08:28:35.291Z,11.70
2018-01-25T08:29:35.285Z,6.90
2018-01-25T08:30:35.250Z,5.10
2018-01-25T08:31:35.235Z,7.30
2018-01-25T08:32:35.216Z,7.20
2018-01-25T08:33:35.226Z,7.10
2018-01-25T08:34:35.205Z,6.20
2018-01-25T08:35:35.168Z,7.40
2018-01-25T08:36:35.142Z,7.10
2018-01-25T08:37:35.132Z,4.80
2018-01-25T08:38:35.123Z,5.70
2018-01-25T08:39:35.137Z,6.70
2018-01-25T08:40:35.085Z,5.90
2018-01-25T08:41:35.076Z,6.40
2018-01-25T08:42:35.052Z,7.70
2018-01-25T08:43:35.036Z,5.50
2018-01-25T08:44:35.082Z,10.10
2018-01-25T08:45:35.020Z,6.40
2018-01-25T08:46:34.995Z,7.90
2018-01-25T08:47:34.978Z,4.90
2018-01-25T08:48:35.675Z,5.80
2018-01-25T08:49:34.943Z,7.10
2018-01-25T08:50:34.960Z,4.50
2018-01-25T08:51:34.911Z,4.20
2018-01-25T08:52:34.910Z,4.50
2018-01-25T08:53:34.894Z,2.20
2018-01-25T08:54:34.870Z,4.10
2018-01-25T08:55:34.880Z,6.40
2018-01-25T08:56:34.882Z,6.30
2018-01-25T08:57:34.848Z,4.00
2018-01-25T08:58:34.809Z,3.80
2018-01-25T08:59:34.796Z,4.70
2018-01-25T09:00:34.840Z,3.90
2018-01-25T09:01:34.785Z,2.90
2018-01-25T09:02:34.750Z,5.10
2018-01-25T09:03:34.740Z,3.90
2018-01-25T09:04:34.713Z,3.90
2018-01-25T09:05:34.700Z,5.20
2018-01-25T09:06:34.723Z,9.90
2018-01-25T09:07:34.664Z,4.20
2018-01-25T09:08:34.663Z,4.90
2018-01-25T09:09:34.647Z,5.10
2018-01-25T09:10:34.665Z,2.00
2018-01-25T09:11:35.186Z,5.90
2018-01-25T09:12:34.592Z,4.70
2018-01-25T09:13:34.584Z,4.40
2018-01-25T09:14:34.565Z,4.20
2018-01-25T09:15:34.588Z,2.90
2018-01-25T09:16:34.526Z,4.50
2018-01-25T09:17:35.205Z,4.40
2018-01-25T09:18:34.497Z,4.20
2018-01-25T09:19:34.475Z,5.50
2018-01-25T09:20:34.498Z,4.90
2018-01-25T09:21:34.517Z,3.90
2018-01-25T09:22:35.193Z,3.80
2018-01-25T09:23:34.504Z,3.60
2018-01-25T09:24:34.413Z,2.00
2018-01-25T09:25:34.417Z,4.40
2018-01-25T09:26:34.368Z,4.40
2018-01-25T09:27:34.406Z,2.20
2018-01-25T09:28:34.336Z,2.80
2018-01-25T09:29:34.343Z,2.80
2018-01-25T09:30:34.348Z,4.20
2018-01-25T09:31:34.292Z,4.10
2018-01-25T09:32:34.331Z,3.00
2018-01-25T09:33:34.255Z,4.10
2018-01-25T09:34:34.251Z,3.70
2018-01-25T09:35:34.240Z,2.30
2018-01-25T09:36:34.211Z,3.20
2018-01-25T09:37:34.236Z,2.80
2018-01-25T09:38:34.178Z,2.20
2018-01-25T09:39:34.194Z,2.00
2018-01-25T09:40:34.158Z,2.50
2018-01-25T09:41:34.142Z,3.80
2018-01-25T09:42:34.241Z,3.90
2018-01-25T09:43:34.248Z,2.90
2018-01-25T09:44:34.090Z,2.40
2018-01-25T09:45:34.111Z,2.20
2018-01-25T09:46:34.066Z,2.70
2018-01-25T09:47:34.185Z,2.90
2018-01-25T09:48:34.061Z,2.00
2018-01-25T09:49:34.017Z,1.70
2018-01-25T09:50:34.000Z,3.20
2018-01-25T09:51:33.972Z,3.90
2018-01-25T09:52:33.989Z,2.50
2018-01-25T09:53:34.696Z,3.40
2018-01-25T09:54:33.940Z,1.80
2018-01-25T09:55:33.921Z,2.30
2018-01-25T09:56:33.907Z,2.20
2018-01-25T09:57:33.880Z,2.10
2018-01-25T09:58:33.975Z,2.00
2018-01-25T09:59:33.869Z,2.80
2018-01-25T10:00:33.849Z,1.60
2018-01-25T10:01:33.877Z,2.90
2018-01-25T10:02:33.827Z,2.10
2018-01-25T10:03:33.882Z,1.80
2018-01-25T10:04:33.828Z,3.40
2018-01-25T10:05:33.842Z,2.10
2018-01-25T10:06:33.749Z,1.70
2018-01-25T10:07:33.839Z,2.20
2018-01-25T10:08:33.729Z,2.10
2018-01-25T10:09:33.726Z,2.00
2018-01-25T10:10:33.704Z,3.80
2018-01-25T10:11:33.741Z,3.10
2018-01-25T10:12:33.663Z,2.40
2018-01-25T10:13:33.646Z,2.10
2018-01-25T10:14:33.680Z,2.00
2018-01-25T10:15:33.655Z,3.10
2018-01-25T10:16:33.614Z,2.10
2018-01-25T10:17:33.608Z,3.10
2018-01-25T10:18:33.639Z,1.50
2018-01-25T10:19:33.648Z,1.60
2018-01-25T10:20:33.529Z,2.80
2018-01-25T10:21:33.712Z,2.10
2018-01-25T10:22:33.498Z,2.10
2018-01-25T10:23:33.557Z,2.30
2018-01-25T10:24:33.510Z,4.40
2018-01-25T10:25:33.487Z,1.80
2018-01-25T10:26:33.445Z,3.20
2018-01-25T10:27:33.424Z,1.90
2018-01-25T10:28:33.418Z,2.90
2018-01-25T10:29:33.416Z,2.40
2018-01-25T10:30:34.227Z,2.00
2018-01-25T10:31:33.354Z,1.40
2018-01-25T10:32:33.376Z,1.90
2018-01-25T10:33:33.400Z,1.40
2018-01-25T10:34:33.322Z,1.40
2018-01-25T10:35:33.358Z,2.10
2018-01-25T10:36:33.300Z,2.30
2018-01-25T10:37:33.261Z,2.40
2018-01-25T10:38:33.410Z,1.50
2018-01-25T10:39:33.236Z,1.70
2018-01-25T10:40:33.268Z,2.40
2018-01-25T10:41:33.245Z,3.30
2018-01-25T10:42:34.175Z,2.00
2018-01-25T10:43:33.215Z,3.00
2018-01-25T10:44:33.165Z,2.10
2018-01-25T10:45:33.233Z,1.60
2018-01-25T10:46:33.203Z,1.90
2018-01-25T10:47:33.206Z,2.50
2018-01-25T10:48:33.165Z,2.00
2018-01-25T10:49:33.264Z,1.80
2018-01-25T10:50:33.140Z,1.70
2018-01-25T10:51:33.072Z,1.40
2018-01-25T10:52:33.108Z,1.50
2018-01-25T10:53:33.181Z,1.50
2018-01-25T10:54:33.171Z,1.90
2018-01-25T10:55:33.677Z,1.90
2018-01-25T10:56:33.031Z,2.40
2018-01-25T10:57:32.956Z,2.40
2018-01-25T10:58:32.941Z,2.10
2018-01-25T10:59:32.931Z,3.40
2018-01-25T11:00:32.918Z,1.60
2018-01-25T11:01:32.913Z,1.30
2018-01-25T11:02:32.902Z,2.90
2018-01-25T11:03:32.906Z,2.10
2018-01-25T11:04:33.687Z,1.70
2018-01-25T11:05:33.712Z,1.90
2018-01-25T11:06:32.876Z,2.50
2018-01-25T11:07:32.810Z,2.30
2018-01-25T11:08:32.879Z,1.50
2018-01-25T11:09:32.844Z,1.50
2018-01-25T11:10:32.752Z,1.30
2018-01-25T11:11:32.833Z,3.00
2018-01-25T11:12:32.746Z,2.60
2018-01-25T11:13:32.805Z,2.40
2018-01-25T11:14:32.866Z,2.50
2018-01-25T11:15:32.669Z,1.80
2018-01-25T11:16:32.766Z,2.10
2018-01-25T11:17:33.308Z,2.20
2018-01-25T11:18:32.656Z,1.50
2018-01-25T11:19:32.693Z,1.80
2018-01-25T11:20:32.686Z,2.20
2018-01-25T11:21:32.616Z,1.70
2018-01-25T11:22:33.206Z,1.90
2018-01-25T11:23:32.941Z,2.10
2018-01-25T11:24:32.545Z,1.90
2018-01-25T11:25:32.522Z,1.60
2018-01-25T11:26:32.503Z,1.80
2018-01-25T11:27:32.529Z,1.30
2018-01-25T11:28:32.481Z,1.80
2018-01-25T11:29:32.468Z,2.60
2018-01-25T11:30:32.451Z,1.40
2018-01-25T11:31:32.431Z,1.90
2018-01-25T11:32:32.436Z,1.80
2018-01-25T11:33:32.461Z,1.40
2018-01-25T11:34:32.370Z,2.50
2018-01-25T11:35:32.400Z,1.70
2018-01-25T11:36:32.349Z,2.50
2018-01-25T11:37:32.326Z,2.00
2018-01-25T11:38:32.374Z,1.40
2018-01-25T11:39:32.294Z,1.90
2018-01-25T11:40:32.277Z,1.30
2018-01-25T11:41:33.220Z,1.50
2018-01-25T11:42:32.250Z,2.40
2018-01-25T11:43:32.266Z,1.80
2018-01-25T11:44:32.232Z,3.20
2018-01-25T11:45:32.203Z,2.80
2018-01-25T11:46:32.184Z,3.40
2018-01-25T11:47:32.173Z,3.70
2018-01-25T11:48:32.187Z,3.20
2018-01-25T11:49:32.164Z,3.20
2018-01-25T11:50:32.131Z,4.70
2018-01-25T11:51:32.110Z,3.50
2018-01-25T11:52:32.106Z,4.70
2018-01-25T11:53:32.075Z,3.50
2018-01-25T11:54:32.084Z,4.50
2018-01-25T11:55:32.043Z,5.20
2018-01-25T11:56:32.040Z,5.20
2018-01-25T11:57:32.022Z,4.60
2018-01-25T11:58:32.002Z,4.70
2018-01-25T11:59:32.015Z,4.40
2018-01-25T12:00:32.095Z,4.40
2018-01-25T12:01:31.952Z,6.00
2018-01-25T12:02:32.712Z,6.10
2018-01-25T12:03:31.926Z,5.70
2018-01-25T12:04:31.942Z,8.10
2018-01-25T12:05:31.907Z,6.20
2018-01-25T12:06:31.902Z,7.30
2018-01-25T12:07:31.874Z,7.70
2018-01-25T12:08:31.851Z,8.40
2018-01-25T12:09:31.834Z,7.60
2018-01-25T12:10:31.839Z,8.30
2018-01-25T12:11:31.807Z,7.60
2018-01-25T12:12:31.792Z,8.90
2018-01-25T12:13:31.764Z,9.10
2018-01-25T12:14:31.757Z,8.50
2018-01-25T12:15:31.761Z,9.00
2018-01-25T12:16:31.742Z,9.10
2018-01-25T12:17:31.703Z,11.20
2018-01-25T12:18:31.688Z,10.00
2018-01-25T12:19:31.721Z,10.20
2018-01-25T12:20:31.654Z,10.30
2018-01-25T12:21:31.676Z,10.70
2018-01-25T12:22:31.726Z,11.60
2018-01-25T12:23:31.667Z,10.90
2018-01-25T12:24:31.597Z,11.40
2018-01-25T12:25:31.582Z,11.70
2018-01-25T12:26:31.588Z,11.00
2018-01-25T12:27:31.551Z,10.70
2018-01-25T12:28:31.554Z,11.20
2018-01-25T12:29:31.545Z,13.70
2018-01-25T12:30:31.509Z,10.90
2018-01-25T12:31:31.490Z,12.80
2018-01-25T12:32:31.482Z,13.20
2018-01-25T12:33:31.479Z,10.60
2018-01-25T12:34:31.438Z,14.20
2018-01-25T12:35:31.435Z,12.00
2018-01-25T12:36:31.409Z,12.60
2018-01-25T12:37:31.400Z,12.60
2018-01-25T12:38:31.438Z,14.80
2018-01-25T12:39:31.373Z,12.80
2018-01-25T12:40:31.389Z,13.00
2018-01-25T12:41:31.334Z,13.70
2018-01-25T12:42:31.326Z,13.50
2018-01-25T12:43:31.333Z,14.70
2018-01-25T12:44:31.380Z,13.90
2018-01-25T12:45:31.274Z,13.40
2018-01-25T12:46:31.262Z,13.70
2018-01-25T12:47:31.241Z,15.30
2018-01-25T12:48:31.227Z,13.10
2018-01-25T12:49:31.230Z,14.90
2018-01-25T12:50:31.283Z,15.40
2018-01-25T12:51:31.221Z,12.40
2018-01-25T12:52:31.160Z,15.30
2018-01-25T12:53:31.414Z,14.10
2018-01-25T12:54:31.178Z,12.90
2018-01-25T12:55:31.171Z,15.00
2018-01-25T12:56:31.735Z,14.70
2018-01-25T12:57:31.087Z,13.50
2018-01-25T12:58:31.066Z,14.10
2018-01-25T12:59:31.053Z,14.70
2018-01-25T13:00:31.060Z,14.10
2018-01-25T13:01:31.025Z,15.60
2018-01-25T13:02:31.014Z,13.00
2018-01-25T13:03:30.993Z,13.50
2018-01-25T13:04:31.690Z,12.20
2018-01-25T13:05:30.970Z,15.00
2018-01-25T13:06:30.966Z,14.70
2018-01-25T13:07:30.936Z,16.30
2018-01-25T13:08:30.922Z,14.50
2018-01-25T13:09:30.945Z,14.40
2018-01-25T13:10:30.984Z,13.50
2018-01-25T13:11:30.905Z,13.00
2018-01-25T13:12:30.859Z,14.00
2018-01-25T13:13:30.838Z,13.90
2018-01-25T13:14:30.838Z,13.90
2018-01-25T13:15:30.819Z,12.70